createdAt,value
2022-08-05T00:00:52.383Z,24.53
2022-08-05T00:01:54.145Z,24.52
2022-08-05T00:02:55.706Z,24.52
2022-08-05T00:03:57.671Z,24.5
2022-08-05T00:04:59.195Z,24.49
2022-08-05T00:06:04.959Z,24.49
2022-08-05T00:07:27.238Z,24.48
2022-08-05T00:08:04.817Z,24.46
2022-08-05T00:09:13.219Z,24.45
2022-08-05T00:10:07.735Z,24.43
2022-08-05T00:11:20.697Z,24.42
2022-08-05T00:12:13.195Z,24.41
2022-08-05T00:13:18.734Z,24.39
2022-08-05T00:14:17.080Z,24.38
2022-08-05T00:15:55.094Z,24.34
2022-08-05T00:16:18.298Z,24.32
2022-08-05T00:17:20.286Z,24.3
2022-08-05T00:18:22.619Z,24.28
2022-08-05T00:19:25.111Z,24.26
2022-08-05T00:20:28.946Z,24.23
2022-08-05T00:21:26.973Z,24.22
2022-08-05T00:22:28.682Z,24.2
2022-08-05T00:23:44.711Z,24.2
2022-08-05T00:24:32.247Z,24.19
2022-08-05T00:25:34.617Z,24.18
2022-08-05T00:25:49.106Z,24.17
2022-08-05T00:26:52.097Z,24.16
2022-08-05T00:27:52.500Z,24.15
2022-08-05T00:28:54.235Z,24.14
2022-08-05T00:29:56.360Z,24.13
2022-08-05T00:30:57.695Z,24.13
2022-08-05T00:32:12.634Z,24.12
2022-08-05T00:33:01.168Z,24.12
2022-08-05T00:34:55.706Z,24.13
2022-08-05T00:35:07.603Z,24.12
2022-08-05T00:36:15.035Z,24.12
2022-08-05T00:37:11.882Z,24.11
2022-08-05T00:38:09.838Z,24.12
2022-08-05T00:39:14.025Z,24.11
2022-08-05T00:40:13.316Z,24.1
2022-08-05T00:41:15.049Z,24.09
2022-08-05T00:42:31.815Z,24.08
2022-08-05T00:43:18.520Z,24.06
2022-08-05T00:44:20.776Z,24.05
2022-08-05T00:45:38.104Z,24.04
2022-08-05T00:46:36.957Z,24.02
2022-08-05T00:47:25.461Z,24.01
2022-08-05T00:48:27.688Z,24
2022-08-05T00:49:32.518Z,23.98
2022-08-05T00:50:30.653Z,23.96
2022-08-05T00:51:51.598Z,23.94
2022-08-05T00:52:34.152Z,23.91
2022-08-05T00:54:00.820Z,23.88
2022-08-05T00:54:37.601Z,23.86
2022-08-05T00:55:42.879Z,23.81
2022-08-05T00:56:41.072Z,23.79
2022-08-05T00:57:58.607Z,23.76
2022-08-05T00:58:45.020Z,23.71
2022-08-05T00:59:46.257Z,23.68
2022-08-05T01:00:50.217Z,23.64
2022-08-05T01:01:49.916Z,23.62
2022-08-05T01:02:51.548Z,23.6
2022-08-05T01:03:53.206Z,23.55
2022-08-05T01:04:54.934Z,23.52
2022-08-05T01:05:56.673Z,23.45
2022-08-05T01:06:58.477Z,23.39
2022-08-05T01:08:40.147Z,23.3
2022-08-05T01:09:03.018Z,23.21
2022-08-05T01:10:03.601Z,23.15
2022-08-05T01:11:05.345Z,23.11
2022-08-05T01:12:18.227Z,23.08
2022-08-05T01:13:13.399Z,23.04
2022-08-05T01:14:10.616Z,23
2022-08-05T01:15:36.375Z,22.95
2022-08-05T01:16:14.028Z,22.91
2022-08-05T01:17:15.771Z,22.88
2022-08-05T01:18:17.493Z,22.83
2022-08-05T01:19:19.211Z,22.78
2022-08-05T01:20:22.292Z,22.75
2022-08-05T01:21:23.137Z,22.72
2022-08-05T01:22:27.792Z,22.69
2022-08-05T01:23:26.154Z,22.66
2022-08-05T01:24:30.092Z,22.6
2022-08-05T01:25:40.375Z,22.56
2022-08-05T01:26:31.377Z,22.5
2022-08-05T01:27:33.225Z,22.46
2022-08-05T01:28:34.886Z,22.42
2022-08-05T01:29:36.567Z,22.38
2022-08-05T01:30:38.313Z,22.34
2022-08-05T01:31:44.651Z,22.3
2022-08-05T01:32:41.765Z,22.26
2022-08-05T01:33:43.500Z,22.22
2022-08-05T01:34:45.240Z,22.19
2022-08-05T01:35:51.131Z,22.15
2022-08-05T01:36:48.862Z,22.13
2022-08-05T01:37:50.453Z,22.11
2022-08-05T01:38:52.295Z,22.09
2022-08-05T01:39:53.983Z,22.07
2022-08-05T01:40:55.658Z,22.05
2022-08-05T01:41:57.448Z,22.03
2022-08-05T01:42:59.117Z,22.02
2022-08-05T01:44:00.849Z,22.01
2022-08-05T01:45:03.359Z,21.99
2022-08-05T01:46:07.507Z,21.97
2022-08-05T01:47:06.801Z,21.96
2022-08-05T01:48:10.220Z,21.95
2022-08-05T01:49:23.300Z,21.94
2022-08-05T01:50:15.638Z,21.93
2022-08-05T01:51:13.150Z,21.92
2022-08-05T01:52:17.891Z,21.89
2022-08-05T01:53:16.474Z,21.88
2022-08-05T01:54:18.193Z,21.87
2022-08-05T01:55:19.940Z,21.85
2022-08-05T01:58:12.355Z,21.84
2022-08-05T01:58:29.496Z,21.83
2022-08-05T01:58:40.284Z,21.82
2022-08-05T01:59:26.876Z,21.81
2022-08-05T02:00:30.288Z,21.8
2022-08-05T02:01:37.939Z,21.79
2022-08-05T02:02:32.148Z,21.78
2022-08-05T02:03:34.108Z,21.78
2022-08-05T02:04:35.558Z,21.77
2022-08-05T02:05:37.286Z,21.76
2022-08-05T02:06:39.294Z,21.74
2022-08-05T02:07:40.767Z,21.73
2022-08-05T02:08:54.941Z,21.73
2022-08-05T02:09:44.235Z,21.71
2022-08-05T02:10:45.943Z,21.71
2022-08-05T02:11:48.078Z,21.7
2022-08-05T02:12:50.899Z,21.68
2022-08-05T02:13:53.812Z,21.66
2022-08-05T02:14:52.891Z,21.63
2022-08-05T02:15:54.641Z,21.59
2022-08-05T02:16:56.411Z,21.55
2022-08-05T02:18:33.085Z,21.53
2022-08-05T02:18:59.832Z,21.51
2022-08-05T02:20:01.583Z,21.48
2022-08-05T02:21:06.332Z,21.48
2022-08-05T02:22:05.096Z,21.47
2022-08-05T02:23:06.766Z,21.45
2022-08-05T02:24:08.505Z,21.44
2022-08-05T02:25:12.566Z,21.42
2022-08-05T02:26:11.973Z,21.41
2022-08-05T02:27:13.844Z,21.39
2022-08-05T02:28:15.442Z,21.38
2022-08-05T02:29:21.625Z,21.36
2022-08-05T02:30:18.926Z,21.35
2022-08-05T02:31:21.123Z,21.34
2022-08-05T02:32:24.139Z,21.33
2022-08-05T02:33:35.921Z,21.32
2022-08-05T02:34:26.020Z,21.3
2022-08-05T02:35:32.996Z,21.27
2022-08-05T02:36:31.400Z,21.26
2022-08-05T02:37:31.983Z,21.25
2022-08-05T02:38:35.461Z,21.25
2022-08-05T02:39:34.567Z,21.24
2022-08-05T02:40:36.252Z,21.23
2022-08-05T02:41:57.485Z,21.23
2022-08-05T02:42:39.765Z,21.22
2022-08-05T02:44:02.380Z,21.22
2022-08-05T02:44:43.220Z,21.21
2022-08-05T02:45:51.867Z,21.21
2022-08-05T02:46:58.730Z,21.19
2022-08-05T02:48:06.670Z,21.18
2022-08-05T02:48:50.143Z,21.18
2022-08-05T02:49:51.865Z,21.17
2022-08-05T02:50:53.628Z,21.17
2022-08-05T02:52:02.694Z,21.17
2022-08-05T02:52:57.085Z,21.17
2022-08-05T02:54:03.923Z,21.17
2022-08-05T02:55:01.964Z,21.17
2022-08-05T02:56:02.446Z,21.17
2022-08-05T02:57:05.129Z,21.18
2022-08-05T02:58:09.706Z,21.19
2022-08-05T02:59:07.484Z,21.19
2022-08-05T03:00:09.217Z,21.21
2022-08-05T03:01:11.074Z,21.21
2022-08-05T03:02:12.701Z,21.21
2022-08-05T03:03:14.431Z,21.22
2022-08-05T03:04:16.154Z,21.22
2022-08-05T03:05:17.901Z,21.22
2022-08-05T03:06:56.096Z,21.23
2022-08-05T03:07:40.578Z,21.22
2022-08-05T03:08:29.621Z,21.21
2022-08-05T03:09:27.162Z,21.21
2022-08-05T03:10:26.735Z,21.19
2022-08-05T03:11:55.463Z,21.18
2022-08-05T03:12:30.038Z,21.17
2022-08-05T03:13:52.209Z,21.17
2022-08-05T03:14:33.507Z,21.16
2022-08-05T03:15:35.343Z,21.16
2022-08-05T03:16:36.976Z,21.16
2022-08-05T03:17:40.699Z,21.14
2022-08-05T03:18:42.113Z,21.1
2022-08-05T03:19:42.297Z,21.06
2022-08-05T03:20:48.546Z,21.03
2022-08-05T03:21:49.639Z,21
2022-08-05T03:22:50.142Z,20.98
2022-08-05T03:23:49.186Z,20.96
2022-08-05T03:24:52.145Z,20.94
2022-08-05T03:26:30.416Z,20.93
2022-08-05T03:26:54.328Z,20.93
2022-08-05T03:27:59.603Z,20.92
2022-08-05T03:28:57.923Z,20.92
2022-08-05T03:30:07.257Z,20.91
2022-08-05T03:31:01.431Z,20.9
2022-08-05T03:32:03.007Z,20.89
2022-08-05T03:33:05.728Z,20.88
2022-08-05T03:34:06.627Z,20.87
2022-08-05T03:35:08.915Z,20.86
2022-08-05T03:36:12.212Z,20.86
2022-08-05T03:37:11.668Z,20.85
2022-08-05T03:38:14.509Z,20.83
2022-08-05T03:39:26.599Z,20.82
2022-08-05T03:40:31.241Z,20.82
2022-08-05T03:41:18.608Z,20.81
2022-08-05T03:42:20.344Z,20.81
2022-08-05T03:44:08.634Z,20.81
2022-08-05T03:44:23.902Z,20.79
2022-08-05T03:45:27.049Z,20.78
2022-08-05T03:46:29.686Z,20.78
2022-08-05T03:47:30.471Z,20.78
2022-08-05T03:48:30.812Z,20.78
2022-08-05T03:49:51.096Z,20.78
2022-08-05T03:50:34.216Z,20.78
2022-08-05T03:52:49.113Z,20.79
2022-08-05T03:55:07.116Z,20.79
2022-08-05T03:55:49.852Z,20.78
2022-08-05T03:55:50.016Z,20.77
2022-08-05T03:56:04.164Z,20.79
2022-08-05T03:56:44.688Z,20.78
2022-08-05T03:57:46.804Z,20.77
2022-08-05T03:58:48.097Z,20.77
2022-08-05T03:59:54.900Z,20.76
2022-08-05T04:00:51.734Z,20.76
2022-08-05T04:01:53.452Z,20.75
2022-08-05T04:02:58.494Z,20.74
2022-08-05T04:04:09.808Z,20.74
2022-08-05T04:04:58.523Z,20.73
2022-08-05T04:06:00.301Z,20.72
2022-08-05T04:07:02.079Z,20.69
2022-08-05T04:08:03.703Z,20.67
2022-08-05T04:09:05.507Z,20.65
2022-08-05T04:10:07.182Z,20.64
2022-08-05T04:11:09.968Z,20.62
2022-08-05T04:12:24.656Z,20.61
2022-08-05T04:13:12.459Z,20.61
2022-08-05T04:14:17.836Z,20.62
2022-08-05T04:15:15.845Z,20.61
2022-08-05T04:16:25.177Z,20.62
2022-08-05T04:17:19.441Z,20.63
2022-08-05T04:18:25.414Z,20.64
2022-08-05T04:19:23.417Z,20.64
2022-08-05T04:20:24.651Z,20.64
2022-08-05T04:22:09.008Z,20.65
2022-08-05T04:22:27.976Z,20.65
2022-08-05T04:24:05.676Z,20.65
2022-08-05T04:24:31.513Z,20.66
2022-08-05T04:25:56.619Z,20.65
2022-08-05T04:26:34.987Z,20.66
2022-08-05T04:27:43.844Z,20.65
2022-08-05T04:28:38.399Z,20.66
2022-08-05T04:29:40.130Z,20.66
2022-08-05T04:30:42.919Z,20.66
2022-08-05T04:31:43.605Z,20.66
2022-08-05T04:32:45.343Z,20.66
2022-08-05T04:34:18.576Z,20.66
2022-08-05T04:34:48.874Z,20.67
2022-08-05T04:36:10.962Z,20.67
2022-08-05T04:36:52.392Z,20.68
2022-08-05T04:38:02.769Z,20.69
2022-08-05T04:38:55.837Z,20.7
2022-08-05T04:39:57.536Z,20.7
2022-08-05T04:40:59.193Z,20.71
2022-08-05T04:42:01.754Z,20.72
2022-08-05T04:43:02.817Z,20.72
2022-08-05T04:44:09.559Z,20.72
2022-08-05T04:45:06.215Z,20.73
2022-08-05T04:46:07.878Z,20.74
2022-08-05T04:47:10.467Z,20.74
2022-08-05T04:48:18.708Z,20.75
2022-08-05T04:49:14.821Z,20.76
2022-08-05T04:50:14.820Z,20.77
2022-08-05T04:51:16.541Z,20.78
2022-08-05T04:52:18.756Z,20.79
2022-08-05T04:53:20.029Z,20.8
2022-08-05T04:54:21.756Z,20.8
2022-08-05T04:56:14.834Z,20.81
2022-08-05T04:56:34.914Z,20.81
2022-08-05T04:57:28.693Z,20.81
2022-08-05T04:58:28.702Z,20.82
2022-08-05T04:59:40.621Z,20.83
2022-08-05T05:00:32.234Z,20.83
2022-08-05T05:02:06.993Z,20.83
2022-08-05T05:02:41.898Z,20.83
2022-08-05T05:03:41.788Z,20.83
2022-08-05T05:04:47.739Z,20.83
2022-08-05T05:06:36.022Z,20.83
2022-08-05T05:06:44.671Z,20.83
2022-08-05T05:07:45.735Z,20.83
2022-08-05T05:08:46.048Z,20.82
2022-08-05T05:09:47.787Z,20.82
2022-08-05T05:10:56.133Z,20.82
2022-08-05T05:11:54.614Z,20.83
2022-08-05T05:12:53.166Z,20.83
2022-08-05T05:13:55.273Z,20.82
2022-08-05T05:14:56.577Z,20.83
2022-08-05T05:16:02.161Z,20.83
2022-08-05T05:16:59.970Z,20.84
2022-08-05T05:18:02.116Z,20.85
2022-08-05T05:19:19.530Z,20.86
2022-08-05T05:20:05.376Z,20.86
2022-08-05T05:21:06.864Z,20.88
2022-08-05T05:22:22.822Z,20.87
2022-08-05T05:23:19.695Z,20.88
2022-08-05T05:24:12.199Z,20.88
2022-08-05T05:25:15.998Z,20.9
2022-08-05T05:26:15.649Z,20.9
2022-08-05T05:27:17.316Z,20.91
2022-08-05T05:28:19.002Z,20.91
2022-08-05T05:29:20.739Z,20.91
2022-08-05T05:30:30.690Z,20.92
2022-08-05T05:31:24.236Z,20.93
2022-08-05T05:32:25.977Z,20.93
2022-08-05T05:33:27.749Z,20.94
2022-08-05T05:34:29.427Z,20.94
2022-08-05T05:35:34.169Z,20.94
2022-08-05T05:36:33.102Z,20.94
2022-08-05T05:37:59.040Z,20.94
2022-08-05T05:38:36.361Z,20.95
2022-08-05T05:39:38.144Z,20.95
2022-08-05T05:40:43.793Z,20.95
2022-08-05T05:41:42.022Z,20.97
2022-08-05T05:42:43.285Z,20.97
2022-08-05T05:43:58.362Z,20.97
2022-08-05T05:44:46.757Z,20.98
2022-08-05T05:45:48.633Z,20.97
2022-08-05T05:46:51.148Z,20.97
2022-08-05T05:48:06.224Z,20.97
2022-08-05T05:48:53.868Z,20.99
2022-08-05T05:49:56.863Z,20.99
2022-08-05T05:50:57.243Z,20.99
2022-08-05T05:51:58.920Z,20.99
2022-08-05T05:53:00.848Z,20.99
2022-08-05T05:54:02.496Z,20.98
2022-08-05T05:55:07.425Z,20.99
2022-08-05T05:56:05.849Z,21
2022-08-05T05:57:13.626Z,21
2022-08-05T05:58:09.303Z,20.99
2022-08-05T05:59:11.177Z,20.98
2022-08-05T06:00:12.778Z,20.98
2022-08-05T06:01:15.353Z,20.97
2022-08-05T06:02:16.307Z,20.98
2022-08-05T06:03:28.624Z,20.97
2022-08-05T06:04:19.734Z,20.97
2022-08-05T06:05:21.604Z,20.96
2022-08-05T06:06:27.770Z,20.96
2022-08-05T06:07:41.842Z,20.96
2022-08-05T06:08:32.312Z,20.95
2022-08-05T06:09:50.185Z,20.95
2022-08-05T06:10:36.442Z,20.95
2022-08-05T06:11:32.009Z,20.95
2022-08-05T06:12:33.591Z,20.95
2022-08-05T06:13:40.883Z,20.96
2022-08-05T06:14:37.044Z,20.96
2022-08-05T06:16:28.321Z,20.97
2022-08-05T06:16:40.520Z,20.97
2022-08-05T06:17:52.671Z,20.97
2022-08-05T06:18:44.034Z,20.96
2022-08-05T06:19:45.729Z,20.97
2022-08-05T06:20:47.707Z,20.96
2022-08-05T06:21:49.926Z,20.96
2022-08-05T06:22:51.122Z,20.96
2022-08-05T06:23:52.727Z,20.96
2022-08-05T06:24:54.411Z,20.96
2022-08-05T06:26:12.507Z,20.96
2022-08-05T06:26:58.004Z,20.97
2022-08-05T06:28:12.552Z,20.97
2022-08-05T06:29:03.685Z,20.98
2022-08-05T06:30:17.757Z,20.98
2022-08-05T06:31:11.184Z,21
2022-08-05T06:32:24.978Z,21.01
2022-08-05T06:33:10.660Z,21.02
2022-08-05T06:34:10.024Z,21.03
2022-08-05T06:35:15.411Z,21.04
2022-08-05T06:36:13.557Z,21.06
2022-08-05T06:37:15.229Z,21.06
2022-08-05T06:38:16.970Z,21.08
2022-08-05T06:39:18.781Z,21.08
2022-08-05T06:40:21.171Z,21.1
2022-08-05T06:41:22.166Z,21.11
2022-08-05T06:42:23.918Z,21.11
2022-08-05T06:43:59.228Z,21.12
2022-08-05T06:44:27.376Z,21.14
2022-08-05T06:46:03.027Z,21.15
2022-08-05T06:46:30.850Z,21.15
2022-08-05T06:48:36.409Z,21.15
2022-08-05T06:48:53.802Z,21.16
2022-08-05T06:50:00.375Z,21.17
2022-08-05T06:50:37.787Z,21.18
2022-08-05T06:51:40.692Z,21.2
2022-08-05T06:52:41.265Z,21.22
2022-08-05T06:53:43.008Z,21.23
2022-08-05T06:54:44.714Z,21.25
2022-08-05T06:55:46.457Z,21.26
2022-08-05T06:56:54.984Z,21.27
2022-08-05T06:58:02.651Z,21.29
2022-08-05T06:58:51.671Z,21.32
2022-08-05T06:59:57.937Z,21.35
2022-08-05T07:00:55.227Z,21.39
2022-08-05T07:01:56.880Z,21.43
2022-08-05T07:02:58.604Z,21.48
2022-08-05T07:04:00.648Z,21.51
2022-08-05T07:05:02.071Z,21.56
2022-08-05T07:06:06.153Z,21.6
2022-08-05T07:07:08.037Z,21.64
2022-08-05T07:08:10.020Z,21.67
2022-08-05T07:09:09.015Z,21.7
2022-08-05T07:10:10.878Z,21.78
2022-08-05T07:11:15.407Z,21.81
2022-08-05T07:12:14.207Z,21.84
2022-08-05T07:13:15.956Z,21.86
2022-08-05T07:14:20.490Z,21.9
2022-08-05T07:15:34.352Z,21.92
2022-08-05T07:17:56.875Z,21.95
2022-08-05T07:18:00.822Z,21.97
2022-08-05T07:18:29.073Z,21.99
2022-08-05T07:20:10.589Z,22.01
2022-08-05T07:20:33.429Z,22.02
2022-08-05T07:21:39.938Z,22.04
2022-08-05T07:22:31.571Z,22.05
2022-08-05T07:23:33.334Z,22.05
2022-08-05T07:24:35.177Z,22.06
2022-08-05T07:25:55.930Z,22.07
2022-08-05T07:26:38.501Z,22.08
2022-08-05T07:27:57.337Z,22.08
2022-08-05T07:28:41.972Z,22.09
2022-08-05T07:30:27.355Z,22.1
2022-08-05T07:30:48.792Z,22.1
2022-08-05T07:31:55.030Z,22.1
2022-08-05T07:32:50.871Z,22.1
2022-08-05T07:33:50.701Z,22.09
2022-08-05T07:34:52.375Z,22.09
2022-08-05T07:36:03.729Z,22.09
2022-08-05T07:36:55.850Z,22.08
2022-08-05T07:37:57.575Z,22.07
2022-08-05T07:38:59.373Z,22.07
2022-08-05T07:40:26.785Z,22.06
2022-08-05T07:42:06.863Z,22.05
2022-08-05T07:42:12.976Z,22.05
2022-08-05T07:43:14.625Z,22.05
2022-08-05T07:44:14.291Z,22.06
2022-08-05T07:45:09.763Z,22.07
2022-08-05T07:46:24.220Z,22.09
2022-08-05T07:47:14.061Z,22.1
2022-08-05T07:48:14.934Z,22.11
2022-08-05T07:49:16.658Z,22.13
2022-08-05T07:50:18.482Z,22.16
2022-08-05T07:51:23.474Z,22.17
2022-08-05T07:52:21.864Z,22.19
2022-08-05T07:53:23.631Z,22.22
2022-08-05T07:54:26.508Z,22.25
2022-08-05T07:56:04.867Z,22.28
2022-08-05T07:57:00.380Z,22.31
2022-08-05T07:57:51.248Z,22.35
2022-08-05T07:58:57.685Z,22.37
2022-08-05T07:59:40.316Z,22.4
2022-08-05T08:00:35.762Z,22.43
2022-08-05T08:01:41.678Z,22.46
2022-08-05T08:03:13.627Z,22.48
2022-08-05T08:03:44.602Z,22.52
2022-08-05T08:04:42.851Z,22.54
2022-08-05T08:05:49.692Z,22.55
2022-08-05T08:06:46.155Z,22.57
2022-08-05T08:07:59.072Z,22.59
2022-08-05T08:08:49.623Z,22.59
2022-08-05T08:09:52.485Z,22.6
2022-08-05T08:10:53.155Z,22.61
2022-08-05T08:12:01.487Z,22.62
2022-08-05T08:12:58.547Z,22.63
2022-08-05T08:14:01.128Z,22.63
2022-08-05T08:15:02.673Z,22.61
2022-08-05T08:16:34.948Z,22.62
2022-08-05T08:17:03.508Z,22.61
2022-08-05T08:18:13.825Z,22.61
2022-08-05T08:19:06.990Z,22.6
2022-08-05T08:20:22.991Z,22.59
2022-08-05T08:21:15.866Z,22.6
2022-08-05T08:22:12.193Z,22.59
2022-08-05T08:24:01.740Z,22.58
2022-08-05T08:24:15.657Z,22.58
2022-08-05T08:25:17.971Z,22.59
2022-08-05T08:26:26.920Z,22.59
2022-08-05T08:27:20.929Z,22.6
2022-08-05T08:28:37.016Z,22.6
2022-08-05T08:30:04.175Z,22.6
2022-08-05T08:30:32.568Z,22.62
2022-08-05T08:31:27.794Z,22.63
2022-08-05T08:32:29.522Z,22.66
2022-08-05T08:33:37.439Z,22.67
2022-08-05T08:34:33.116Z,22.68
2022-08-05T08:35:41.100Z,22.7
2022-08-05T08:36:50.486Z,22.73
2022-08-05T08:37:38.207Z,22.73
2022-08-05T08:38:40.069Z,22.74
2022-08-05T08:39:49.406Z,22.75
2022-08-05T08:40:50.408Z,22.76
2022-08-05T08:41:51.664Z,22.78
2022-08-05T08:42:50.414Z,22.77
2022-08-05T08:45:16.892Z,22.77
2022-08-05T08:45:23.382Z,22.77
2022-08-05T08:45:52.081Z,22.76
2022-08-05T08:46:53.824Z,22.75
2022-08-05T08:48:10.578Z,22.72
2022-08-05T08:49:07.810Z,22.71
2022-08-05T08:50:14.307Z,22.69
2022-08-05T08:51:07.605Z,22.68
2022-08-05T08:52:13.121Z,22.65
2022-08-05T08:53:08.170Z,22.64
2022-08-05T08:54:05.976Z,22.64
2022-08-05T08:55:13.155Z,22.62
2022-08-05T08:56:09.431Z,22.62
2022-08-05T08:57:11.811Z,22.62
2022-08-05T08:58:13.349Z,22.61
2022-08-05T08:59:19.350Z,22.61
2022-08-05T09:00:16.416Z,22.62
2022-08-05T09:01:18.646Z,22.61
2022-08-05T09:02:20.011Z,22.62
2022-08-05T09:03:21.588Z,22.61
2022-08-05T09:04:23.319Z,22.61
2022-08-05T09:05:38.419Z,22.62
2022-08-05T09:06:28.121Z,22.61
2022-08-05T09:07:39.442Z,22.59
2022-08-05T09:08:30.451Z,22.58
2022-08-05T09:09:32.537Z,22.58
2022-08-05T09:10:33.732Z,22.56
2022-08-05T09:11:52.730Z,22.55
2022-08-05T09:12:37.175Z,22.53
2022-08-05T09:14:00.917Z,22.51
2022-08-05T09:14:58.676Z,22.5
2022-08-05T09:15:42.392Z,22.51
2022-08-05T09:16:48.568Z,22.5
2022-08-05T09:17:49.930Z,22.5
2022-08-05T09:18:47.600Z,22.5
2022-08-05T09:19:55.459Z,22.49
2022-08-05T09:20:51.062Z,22.46
2022-08-05T09:22:21.939Z,22.45
2022-08-05T09:22:54.646Z,22.42
2022-08-05T09:24:00.659Z,22.41
2022-08-05T09:24:58.126Z,22.4
2022-08-05T09:26:06.202Z,22.4
2022-08-05T09:27:01.458Z,22.38
2022-08-05T09:28:06.346Z,22.37
2022-08-05T09:29:04.937Z,22.36
2022-08-05T09:30:06.854Z,22.36
2022-08-05T09:31:18.303Z,22.37
2022-08-05T09:32:42.252Z,22.36
2022-08-05T09:33:17.079Z,22.38
2022-08-05T09:34:13.602Z,22.39
2022-08-05T09:35:26.803Z,22.38
2022-08-05T09:36:17.088Z,22.39
2022-08-05T09:37:18.802Z,22.39
2022-08-05T09:38:29.447Z,22.39
2022-08-05T09:39:22.456Z,22.39
2022-08-05T09:40:24.081Z,22.4
2022-08-05T09:41:25.761Z,22.4
2022-08-05T09:42:28.509Z,22.4
2022-08-05T09:43:40.790Z,22.4
2022-08-05T09:44:30.947Z,22.41
2022-08-05T09:46:06.891Z,22.41
2022-08-05T09:46:35.106Z,22.42
2022-08-05T09:47:55.227Z,22.43
2022-08-05T09:48:37.901Z,22.44
2022-08-05T09:49:54.678Z,22.46
2022-08-05T09:50:44.650Z,22.49
2022-08-05T09:51:43.130Z,22.51
2022-08-05T09:52:45.363Z,22.54
2022-08-05T09:53:53.381Z,22.57
2022-08-05T09:54:48.339Z,22.6
2022-08-05T09:55:58.453Z,22.64
2022-08-05T09:56:52.526Z,22.67
2022-08-05T09:57:54.632Z,22.71
2022-08-05T09:58:55.326Z,22.75
2022-08-05T09:59:56.964Z,22.79
2022-08-05T10:00:58.721Z,22.84
2022-08-05T10:02:00.623Z,22.88
2022-08-05T10:03:02.226Z,22.93
2022-08-05T10:04:03.903Z,22.98
2022-08-05T10:05:05.650Z,23.03
2022-08-05T10:06:07.795Z,23.08
2022-08-05T10:07:31.938Z,23.12
2022-08-05T10:08:37.219Z,23.18
2022-08-05T10:09:28.326Z,23.21
2022-08-05T10:10:17.832Z,23.24
2022-08-05T10:11:16.039Z,23.27
2022-08-05T10:12:30.288Z,23.28
2022-08-05T10:13:19.509Z,23.28
2022-08-05T10:14:21.308Z,23.28
2022-08-05T10:15:22.987Z,23.28
2022-08-05T10:16:24.716Z,23.26
2022-08-05T10:17:37.613Z,23.26
2022-08-05T10:18:28.184Z,23.26
2022-08-05T10:20:02.868Z,23.27
2022-08-05T10:20:31.658Z,23.27
2022-08-05T10:21:35.340Z,23.29
2022-08-05T10:22:38.046Z,23.29
2022-08-05T10:23:59.543Z,23.31
2022-08-05T10:24:39.749Z,23.33
2022-08-05T10:25:40.337Z,23.34
2022-08-05T10:26:51.257Z,23.36
2022-08-05T10:28:12.806Z,23.37
2022-08-05T10:28:46.324Z,23.38
2022-08-05T10:30:06.419Z,23.4
2022-08-05T10:32:51.790Z,23.47
2022-08-05T10:32:52.387Z,23.44
2022-08-05T10:32:59.883Z,23.49
2022-08-05T10:33:54.791Z,23.52
2022-08-05T10:34:56.072Z,23.55
2022-08-05T10:35:59.891Z,23.57
2022-08-05T10:36:59.557Z,23.58
2022-08-05T10:38:01.146Z,23.61
2022-08-05T10:39:05.273Z,23.61
2022-08-05T10:40:17.881Z,23.62
2022-08-05T10:41:06.396Z,23.63
2022-08-05T10:42:08.403Z,23.63
2022-08-05T10:43:12.518Z,23.62
2022-08-05T10:44:11.546Z,23.59
2022-08-05T10:45:23.395Z,23.56
2022-08-05T10:46:15.023Z,23.55
2022-08-05T10:47:26.092Z,23.53
2022-08-05T10:48:31.588Z,23.52
2022-08-05T10:49:26.993Z,23.49
2022-08-05T10:50:35.274Z,23.46
2022-08-05T10:51:28.994Z,23.41
2022-08-05T10:52:25.592Z,23.4
2022-08-05T10:53:27.182Z,23.36
2022-08-05T10:54:32.637Z,23.34
2022-08-05T10:55:38.531Z,23.29
2022-08-05T10:56:32.372Z,23.24
2022-08-05T10:57:34.963Z,23.21
2022-08-05T10:58:48.625Z,23.19
2022-08-05T11:00:03.194Z,23.17
2022-08-05T11:00:42.052Z,23.16
2022-08-05T11:02:03.572Z,23.13
2022-08-05T11:02:43.706Z,23.1
2022-08-05T11:03:44.565Z,23.09
2022-08-05T11:04:46.518Z,23.09
2022-08-05T11:05:49.507Z,23.09
2022-08-05T11:06:49.995Z,23.1
2022-08-05T11:08:01.733Z,23.12
2022-08-05T11:08:53.177Z,23.13
2022-08-05T11:10:04.086Z,23.15
2022-08-05T11:11:00.934Z,23.18
2022-08-05T11:11:58.399Z,23.21
2022-08-05T11:13:01.157Z,23.24
2022-08-05T11:14:01.847Z,23.28
2022-08-05T11:15:19.150Z,23.33
2022-08-05T11:16:05.459Z,23.38
2022-08-05T11:17:59.161Z,23.42
2022-08-05T11:18:11.657Z,23.48
2022-08-05T11:20:11.120Z,23.55
2022-08-05T11:20:18.270Z,23.59
2022-08-05T11:21:14.012Z,23.65
2022-08-05T11:22:15.874Z,23.72
2022-08-05T11:23:17.482Z,23.8
2022-08-05T11:24:30.383Z,23.87
2022-08-05T11:26:03.440Z,23.94
2022-08-05T11:26:28.837Z,23.98
2022-08-05T11:27:24.732Z,24.04
2022-08-05T11:28:26.863Z,24.11
2022-08-05T11:29:27.876Z,24.17
2022-08-05T11:30:29.649Z,24.23
2022-08-05T11:31:57.570Z,24.3
2022-08-05T11:32:33.285Z,24.36
2022-08-05T11:33:46.125Z,24.45
2022-08-05T11:34:36.558Z,24.53
2022-08-05T11:35:38.291Z,24.62
2022-08-05T11:36:42.697Z,24.69
2022-08-05T11:38:30.351Z,24.74
2022-08-05T11:38:45.949Z,24.79
2022-08-05T11:39:48.238Z,24.83
2022-08-05T11:40:46.956Z,24.89
2022-08-05T11:41:58.056Z,24.95
2022-08-05T11:42:50.433Z,25.02
2022-08-05T11:44:04.896Z,25.06
2022-08-05T11:44:54.431Z,25.09
2022-08-05T11:46:15.107Z,25.11
2022-08-05T11:47:09.634Z,25.17
2022-08-05T11:47:59.111Z,25.19
2022-08-05T11:49:00.849Z,25.2
2022-08-05T11:50:02.568Z,25.2
2022-08-05T11:51:05.407Z,25.21
2022-08-05T11:52:11.519Z,25.23
2022-08-05T11:53:09.899Z,25.24
2022-08-05T11:54:09.496Z,25.26
2022-08-05T11:55:11.240Z,25.25
2022-08-05T11:56:12.967Z,25.26
2022-08-05T11:57:25.241Z,25.27
2022-08-05T11:58:17.323Z,25.26
2022-08-05T11:59:21.176Z,25.29
2022-08-05T12:00:19.931Z,25.31
2022-08-05T12:01:21.655Z,25.31
2022-08-05T12:02:30.951Z,25.35
2022-08-05T12:03:31.519Z,25.38
2022-08-05T12:04:26.855Z,25.39
2022-08-05T12:05:36.059Z,25.42
2022-08-05T12:06:30.327Z,25.43
2022-08-05T12:08:07.899Z,25.47
2022-08-05T12:08:33.823Z,25.51
2022-08-05T12:09:52.962Z,25.51
2022-08-05T12:10:38.552Z,25.53
2022-08-05T12:11:39.873Z,25.54
2022-08-05T12:12:58.496Z,25.56
2022-08-05T12:13:48.719Z,25.58
2022-08-05T12:14:47.366Z,25.59
2022-08-05T12:15:49.897Z,25.56
2022-08-05T12:16:47.661Z,25.55
2022-08-05T12:18:02.950Z,25.54
2022-08-05T12:18:52.939Z,25.53
2022-08-05T12:20:17.142Z,25.54
2022-08-05T12:20:54.725Z,25.55
2022-08-05T12:21:56.351Z,25.55
2022-08-05T12:22:58.080Z,25.56
2022-08-05T12:24:04.543Z,25.54
2022-08-05T12:25:01.557Z,25.53
2022-08-05T12:26:04.279Z,25.55
2022-08-05T12:27:09.528Z,25.55
2022-08-05T12:28:06.734Z,25.58
2022-08-05T12:29:09.526Z,25.61
2022-08-05T12:30:10.208Z,25.64
2022-08-05T12:31:12.114Z,25.65
2022-08-05T12:32:13.692Z,25.67
2022-08-05T12:33:27.422Z,25.65
2022-08-05T12:34:20.511Z,25.64
2022-08-05T12:35:21.890Z,25.6
2022-08-05T12:36:20.701Z,25.56
2022-08-05T12:37:22.437Z,25.53
2022-08-05T12:38:31.419Z,25.5
2022-08-05T12:39:34.626Z,25.45
2022-08-05T12:40:29.789Z,25.38
2022-08-05T12:41:34.424Z,25.36
2022-08-05T12:42:31.015Z,25.32
2022-08-05T12:43:32.819Z,25.29
2022-08-05T12:44:34.581Z,25.28
2022-08-05T12:45:42.581Z,25.27
2022-08-05T12:46:37.958Z,25.28
2022-08-05T12:47:43.569Z,25.29
2022-08-05T12:48:41.434Z,25.27
2022-08-05T12:50:02.452Z,25.28
2022-08-05T12:50:44.905Z,25.27
2022-08-05T12:52:12.830Z,25.25
2022-08-05T12:52:48.465Z,25.24
2022-08-05T12:53:55.916Z,25.23
2022-08-05T12:54:52.001Z,25.23
2022-08-05T12:55:53.631Z,25.23
2022-08-05T12:56:55.308Z,25.21
2022-08-05T12:58:50.460Z,25.19
2022-08-05T12:59:02.800Z,25.17
2022-08-05T13:01:58.204Z,25.18
2022-08-05T13:02:01.735Z,25.18
2022-08-05T13:02:07.534Z,25.16
2022-08-05T13:03:06.728Z,25.16
2022-08-05T13:04:07.673Z,25.13
2022-08-05T13:05:11.063Z,25.11
2022-08-05T13:06:11.754Z,25.08
2022-08-05T13:07:15.878Z,25.05
2022-08-05T13:08:14.395Z,24.99
2022-08-05T13:09:28.366Z,24.95
2022-08-05T13:10:19.845Z,24.91
2022-08-05T13:11:46.955Z,24.84
2022-08-05T13:12:21.338Z,24.78
2022-08-05T13:14:06.218Z,24.74
2022-08-05T13:14:35.959Z,24.67
2022-08-05T13:15:36.064Z,24.63
2022-08-05T13:16:28.275Z,24.56
2022-08-05T13:17:32.004Z,24.52